sensor_id;sensor_type;location;lat;lon;timestamp;P1;durP1;ratioP1;P2;durP2;ratioP2
4794;SDS011;2411;47.060;15.064;2022-11-20T00:01:21;6.60;;;5.40;;
4794;SDS011;2411;47.060;15.064;2022-11-20T00:03:53;11.77;;;5.67;;
4794;SDS011;2411;47.060;15.064;2022-11-20T00:06:22;11.80;;;6.20;;
4794;SDS011;2411;47.060;15.064;2022-11-20T00:08:50;6.10;;;5.50;;
4794;SDS011;2411;47.060;15.064;2022-11-20T00:11:21;10.37;;;5.30;;
4794;SDS011;2411;47.060;15.064;2022-11-20T00:13:50;10.20;;;6.43;;
4794;SDS011;2411;47.060;15.064;2022-11-20T00:16:19;7.47;;;6.43;;
4794;SDS011;2411;47.060;15.064;2022-11-20T00:18:48;13.60;;;6.10;;
4794;SDS011;2411;47.060;15.064;2022-11-20T00:21:19;28.00;;;6.60;;
4794;SDS011;2411;47.060;15.064;2022-11-20T00:23:56;14.50;;;6.30;;
4794;SDS011;2411;47.060;15.064;2022-11-20T00:26:25;14.03;;;6.80;;
4794;SDS011;2411;47.060;15.064;2022-11-20T00:28:54;8.37;;;6.77;;
4794;SDS011;2411;47.060;15.064;2022-11-20T00:31:23;21.20;;;8.57;;
4794;SDS011;2411;47.060;15.064;2022-11-20T00:33:51;32.57;;;8.37;;
4794;SDS011;2411;47.060;15.064;2022-11-20T00:36:20;21.30;;;7.73;;
4794;SDS011;2411;47.060;15.064;2022-11-20T00:38:52;43.53;;;8.50;;
4794;SDS011;2411;47.060;15.064;2022-11-20T00:41:20;29.13;;;8.33;;
4794;SDS011;2411;47.060;15.064;2022-11-20T00:43:48;20.00;;;9.20;;
4794;SDS011;2411;47.060;15.064;2022-11-20T00:46:16;31.87;;;8.57;;
4794;SDS011;2411;47.060;15.064;2022-11-20T00:48:45;19.73;;;8.30;;
4794;SDS011;2411;47.060;15.064;2022-11-20T00:51:13;30.37;;;8.83;;
4794;SDS011;2411;47.060;15.064;2022-11-20T00:53:41;30.97;;;8.20;;
4794;SDS011;2411;47.060;15.064;2022-11-20T00:56:10;41.17;;;7.10;;
4794;SDS011;2411;47.060;15.064;2022-11-20T00:58:40;16.80;;;7.47;;
4794;SDS011;2411;47.060;15.064;2022-11-20T01:01:10;15.63;;;7.30;;
4794;SDS011;2411;47.060;15.064;2022-11-20T01:03:39;24.13;;;8.30;;
4794;SDS011;2411;47.060;15.064;2022-11-20T01:06:16;19.77;;;7.80;;
4794;SDS011;2411;47.060;15.064;2022-11-20T01:08:47;42.27;;;9.37;;
4794;SDS011;2411;47.060;15.064;2022-11-20T01:11:19;53.17;;;8.97;;
4794;SDS011;2411;47.060;15.064;2022-11-20T01:13:50;27.83;;;9.20;;
4794;SDS011;2411;47.060;15.064;2022-11-20T01:16:29;29.67;;;8.70;;
4794;SDS011;2411;47.060;15.064;2022-11-20T01:18:58;18.70;;;8.60;;
4794;SDS011;2411;47.060;15.064;2022-11-20T01:21:28;14.67;;;7.60;;
4794;SDS011;2411;47.060;15.064;2022-11-20T01:23:57;28.80;;;7.73;;
4794;SDS011;2411;47.060;15.064;2022-11-20T01:26:26;37.37;;;9.43;;
4794;SDS011;2411;47.060;15.064;2022-11-20T01:28:55;29.37;;;9.67;;
4794;SDS011;2411;47.060;15.064;2022-11-20T01:31:30;33.83;;;9.33;;
4794;SDS011;2411;47.060;15.064;2022-11-20T01:34:01;45.27;;;9.03;;
4794;SDS011;2411;47.060;15.064;2022-11-20T01:36:43;21.17;;;8.80;;
4794;SDS011;2411;47.060;15.064;2022-11-20T01:39:15;14.60;;;8.50;;
4794;SDS011;2411;47.060;15.064;2022-11-20T01:41:48;23.90;;;7.90;;
4794;SDS011;2411;47.060;15.064;2022-11-20T01:47:23;15.83;;;9.20;;
4794;SDS011;2411;47.060;15.064;2022-11-20T01:50:03;21.43;;;10.10;;
4794;SDS011;2411;47.060;15.064;2022-11-20T01:52:33;28.97;;;9.37;;
4794;SDS011;2411;47.060;15.064;2022-11-20T01:55:10;33.97;;;8.80;;
4794;SDS011;2411;47.060;15.064;2022-11-20T01:57:41;20.73;;;9.57;;
4794;SDS011;2411;47.060;15.064;2022-11-20T02:00:11;25.00;;;8.60;;
4794;SDS011;2411;47.060;15.064;2022-11-20T02:02:41;21.93;;;8.40;;
4794;SDS011;2411;47.060;15.064;2022-11-20T02:08:03;20.43;;;7.90;;
4794;SDS011;2411;47.060;15.064;2022-11-20T02:10:32;42.03;;;9.20;;
4794;SDS011;2411;47.060;15.064;2022-11-20T02:13:00;39.10;;;8.57;;
4794;SDS011;2411;47.060;15.064;2022-11-20T02:15:46;25.00;;;8.50;;
4794;SDS011;2411;47.060;15.064;2022-11-20T02:18:14;36.17;;;8.60;;
4794;SDS011;2411;47.060;15.064;2022-11-20T02:20:46;27.07;;;9.63;;
4794;SDS011;2411;47.060;15.064;2022-11-20T02:23:38;39.40;;;9.03;;
4794;SDS011;2411;47.060;15.064;2022-11-20T02:26:11;57.70;;;8.37;;
4794;SDS011;2411;47.060;15.064;2022-11-20T02:28:42;23.83;;;7.90;;
4794;SDS011;2411;47.060;15.064;2022-11-20T02:31:09;15.60;;;7.77;;
4794;SDS011;2411;47.060;15.064;2022-11-20T02:33:36;9.83;;;7.67;;
4794;SDS011;2411;47.060;15.064;2022-11-20T02:36:03;12.93;;;7.53;;
4794;SDS011;2411;47.060;15.064;2022-11-20T02:38:31;13.87;;;6.77;;
4794;SDS011;2411;47.060;15.064;2022-11-20T02:40:58;24.20;;;6.87;;
4794;SDS011;2411;47.060;15.064;2022-11-20T02:43:25;24.10;;;7.97;;
4794;SDS011;2411;47.060;15.064;2022-11-20T02:45:54;20.67;;;7.37;;
4794;SDS011;2411;47.060;15.064;2022-11-20T02:48:21;22.80;;;7.57;;
4794;SDS011;2411;47.060;15.064;2022-11-20T02:50:50;17.57;;;7.70;;
4794;SDS011;2411;47.060;15.064;2022-11-20T02:53:17;17.63;;;7.30;;
4794;SDS011;2411;47.060;15.064;2022-11-20T02:55:45;37.47;;;7.80;;
4794;SDS011;2411;47.060;15.064;2022-11-20T02:58:12;33.83;;;8.70;;
4794;SDS011;2411;47.060;15.064;2022-11-20T03:00:39;15.40;;;7.30;;
4794;SDS011;2411;47.060;15.064;2022-11-20T03:03:06;10.50;;;7.60;;
4794;SDS011;2411;47.060;15.064;2022-11-20T03:05:33;8.50;;;6.50;;
4794;SDS011;2411;47.060;15.064;2022-11-20T03:08:01;6.70;;;5.20;;
4794;SDS011;2411;47.060;15.064;2022-11-20T03:10:28;7.77;;;6.13;;
4794;SDS011;2411;47.060;15.064;2022-11-20T03:12:55;6.50;;;4.97;;
4794;SDS011;2411;47.060;15.064;2022-11-20T03:15:23;6.33;;;5.27;;
4794;SDS011;2411;47.060;15.064;2022-11-20T03:17:53;6.40;;;5.80;;
4794;SDS011;2411;47.060;15.064;2022-11-20T03:20:21;6.80;;;5.90;;
4794;SDS011;2411;47.060;15.064;2022-11-20T03:22:49;7.17;;;5.40;;
4794;SDS011;2411;47.060;15.064;2022-11-20T03:25:16;7.87;;;6.00;;
4794;SDS011;2411;47.060;15.064;2022-11-20T03:27:43;7.40;;;5.90;;
4794;SDS011;2411;47.060;15.064;2022-11-20T03:30:11;8.83;;;6.40;;
4794;SDS011;2411;47.060;15.064;2022-11-20T03:32:38;8.97;;;6.57;;
4794;SDS011;2411;47.060;15.064;2022-11-20T03:35:05;8.43;;;6.67;;
4794;SDS011;2411;47.060;15.064;2022-11-20T03:37:33;7.13;;;6.00;;
4794;SDS011;2411;47.060;15.064;2022-11-20T03:40:00;10.63;;;7.97;;
4794;SDS011;2411;47.060;15.064;2022-11-20T03:42:27;7.60;;;6.13;;
4794;SDS011;2411;47.060;15.064;2022-11-20T03:45:13;8.50;;;6.70;;
4794;SDS011;2411;47.060;15.064;2022-11-20T03:47:42;9.03;;;6.40;;
4794;SDS011;2411;47.060;15.064;2022-11-20T03:50:11;7.10;;;6.30;;
4794;SDS011;2411;47.060;15.064;2022-11-20T03:52:40;9.00;;;6.33;;
4794;SDS011;2411;47.060;15.064;2022-11-20T03:55:08;5.97;;;5.30;;
4794;SDS011;2411;47.060;15.064;2022-11-20T03:57:35;7.67;;;6.00;;
4794;SDS011;2411;47.060;15.064;2022-11-20T04:00:03;6.83;;;5.47;;
4794;SDS011;2411;47.060;15.064;2022-11-20T04:02:31;6.93;;;6.23;;
4794;SDS011;2411;47.060;15.064;2022-11-20T04:04:59;7.20;;;5.73;;
4794;SDS011;2411;47.060;15.064;2022-11-20T04:07:26;6.93;;;6.17;;
4794;SDS011;2411;47.060;15.064;2022-11-20T04:09:53;6.77;;;5.73;;
4794;SDS011;2411;47.060;15.064;2022-11-20T04:12:20;8.80;;;6.87;;
4794;SDS011;2411;47.060;15.064;2022-11-20T04:14:47;6.57;;;5.50;;
4794;SDS011;2411;47.060;15.064;2022-11-20T04:17:15;9.13;;;5.63;;
4794;SDS011;2411;47.060;15.064;2022-11-20T04:19:42;7.17;;;5.80;;
4794;SDS011;2411;47.060;15.064;2022-11-20T04:22:09;6.30;;;5.70;;
4794;SDS011;2411;47.060;15.064;2022-11-20T04:24:38;6.50;;;5.80;;
4794;SDS011;2411;47.060;15.064;2022-11-20T04:27:05;6.70;;;6.00;;
4794;SDS011;2411;47.060;15.064;2022-11-20T04:29:32;6.97;;;6.00;;
4794;SDS011;2411;47.060;15.064;2022-11-20T04:31:59;6.63;;;5.90;;
4794;SDS011;2411;47.060;15.064;2022-11-20T04:34:26;8.07;;;5.93;;
4794;SDS011;2411;47.060;15.064;2022-11-20T04:36:54;6.47;;;5.50;;
4794;SDS011;2411;47.060;15.064;2022-11-20T04:39:21;6.00;;;5.40;;
4794;SDS011;2411;47.060;15.064;2022-11-20T04:41:49;6.47;;;5.87;;
4794;SDS011;2411;47.060;15.064;2022-11-20T04:44:36;6.50;;;5.80;;
4794;SDS011;2411;47.060;15.064;2022-11-20T04:47:03;14.17;;;5.10;;
4794;SDS011;2411;47.060;15.064;2022-11-20T04:49:30;6.53;;;5.40;;
4794;SDS011;2411;47.060;15.064;2022-11-20T04:51:58;7.83;;;5.53;;
4794;SDS011;2411;47.060;15.064;2022-11-20T04:54:25;7.07;;;5.70;;
4794;SDS011;2411;47.060;15.064;2022-11-20T04:56:52;6.83;;;6.13;;
4794;SDS011;2411;47.060;15.064;2022-11-20T04:59:19;6.10;;;5.10;;
4794;SDS011;2411;47.060;15.064;2022-11-20T05:01:47;6.87;;;6.17;;
4794;SDS011;2411;47.060;15.064;2022-11-20T05:04:14;6.60;;;5.90;;
4794;SDS011;2411;47.060;15.064;2022-11-20T05:06:41;7.17;;;5.90;;
4794;SDS011;2411;47.060;15.064;2022-11-20T05:09:08;5.70;;;5.20;;
4794;SDS011;2411;47.060;15.064;2022-11-20T05:11:36;7.57;;;5.87;;
4794;SDS011;2411;47.060;15.064;2022-11-20T05:14:03;5.70;;;5.20;;
4794;SDS011;2411;47.060;15.064;2022-11-20T05:16:30;6.00;;;5.10;;
4794;SDS011;2411;47.060;15.064;2022-11-20T05:19:00;6.30;;;5.10;;
4794;SDS011;2411;47.060;15.064;2022-11-20T05:21:29;5.97;;;4.53;;
4794;SDS011;2411;47.060;15.064;2022-11-20T05:23:56;5.67;;;5.17;;
4794;SDS011;2411;47.060;15.064;2022-11-20T05:26:24;7.30;;;4.93;;
4794;SDS011;2411;47.060;15.064;2022-11-20T05:28:51;6.47;;;5.87;;
4794;SDS011;2411;47.060;15.064;2022-11-20T05:31:19;4.80;;;4.40;;
4794;SDS011;2411;47.060;15.064;2022-11-20T05:33:53;5.37;;;4.87;;
4794;SDS011;2411;47.060;15.064;2022-11-20T05:36:21;7.07;;;5.43;;
4794;SDS011;2411;47.060;15.064;2022-11-20T05:38:49;6.47;;;5.57;;
4794;SDS011;2411;47.060;15.064;2022-11-20T05:41:18;8.30;;;6.30;;
4794;SDS011;2411;47.060;15.064;2022-11-20T05:43:47;8.00;;;6.70;;
4794;SDS011;2411;47.060;15.064;2022-11-20T05:46:16;29.70;;;8.77;;
4794;SDS011;2411;47.060;15.064;2022-11-20T05:48:54;5.07;;;4.67;;
4794;SDS011;2411;47.060;15.064;2022-11-20T05:51:22;6.00;;;5.47;;
4794;SDS011;2411;47.060;15.064;2022-11-20T05:53:50;4.73;;;4.23;;
4794;SDS011;2411;47.060;15.064;2022-11-20T05:56:18;6.47;;;5.73;;
4794;SDS011;2411;47.060;15.064;2022-11-20T05:58:47;6.97;;;5.77;;
4794;SDS011;2411;47.060;15.064;2022-11-20T06:01:23;7.83;;;6.37;;
4794;SDS011;2411;47.060;15.064;2022-11-20T06:03:52;6.93;;;6.20;;
4794;SDS011;2411;47.060;15.064;2022-11-20T06:06:20;12.93;;;5.90;;
4794;SDS011;2411;47.060;15.064;2022-11-20T06:08:48;74.97;;;8.77;;
4794;SDS011;2411;47.060;15.064;2022-11-20T06:11:16;43.00;;;8.10;;
4794;SDS011;2411;47.060;15.064;2022-11-20T06:13:44;42.80;;;7.63;;
4794;SDS011;2411;47.060;15.064;2022-11-20T06:16:12;11.67;;;6.23;;
4794;SDS011;2411;47.060;15.064;2022-11-20T06:18:41;14.17;;;6.03;;
4794;SDS011;2411;47.060;15.064;2022-11-20T06:21:10;61.63;;;8.73;;
4794;SDS011;2411;47.060;15.064;2022-11-20T06:23:39;83.77;;;7.50;;
4794;SDS011;2411;47.060;15.064;2022-11-20T06:26:07;15.67;;;6.77;;
4794;SDS011;2411;47.060;15.064;2022-11-20T06:28:35;15.43;;;5.50;;
4794;SDS011;2411;47.060;15.064;2022-11-20T06:31:03;27.37;;;7.60;;
4794;SDS011;2411;47.060;15.064;2022-11-20T06:33:31;48.13;;;8.37;;
4794;SDS011;2411;47.060;15.064;2022-11-20T06:35:59;31.47;;;6.77;;
4794;SDS011;2411;47.060;15.064;2022-11-20T06:38:32;32.97;;;7.33;;
4794;SDS011;2411;47.060;15.064;2022-11-20T06:41:00;20.63;;;8.48;;
4794;SDS011;2411;47.060;15.064;2022-11-20T06:43:28;25.47;;;8.00;;
4794;SDS011;2411;47.060;15.064;2022-11-20T06:45:56;12.30;;;7.03;;
4794;SDS011;2411;47.060;15.064;2022-11-20T06:48:25;8.43;;;5.67;;
4794;SDS011;2411;47.060;15.064;2022-11-20T06:50:54;5.60;;;5.10;;
4794;SDS011;2411;47.060;15.064;2022-11-20T06:53:22;8.43;;;5.97;;
4794;SDS011;2411;47.060;15.064;2022-11-20T06:55:50;16.77;;;6.57;;
4794;SDS011;2411;47.060;15.064;2022-11-20T06:58:18;27.40;;;8.80;;
4794;SDS011;2411;47.060;15.064;2022-11-20T07:00:45;26.50;;;7.83;;
4794;SDS011;2411;47.060;15.064;2022-11-20T07:03:13;25.73;;;8.13;;
4794;SDS011;2411;47.060;15.064;2022-11-20T07:05:41;29.23;;;7.87;;
4794;SDS011;2411;47.060;15.064;2022-11-20T07:08:09;10.10;;;6.77;;
4794;SDS011;2411;47.060;15.064;2022-11-20T07:10:36;7.73;;;5.47;;
4794;SDS011;2411;47.060;15.064;2022-11-20T07:13:03;10.43;;;6.30;;
4794;SDS011;2411;47.060;15.064;2022-11-20T07:15:31;18.13;;;5.83;;
4794;SDS011;2411;47.060;15.064;2022-11-20T07:17:59;10.70;;;5.17;;
4794;SDS011;2411;47.060;15.064;2022-11-20T07:20:26;7.33;;;5.17;;
4794;SDS011;2411;47.060;15.064;2022-11-20T07:22:55;11.00;;;5.20;;
4794;SDS011;2411;47.060;15.064;2022-11-20T07:25:23;6.10;;;5.50;;
4794;SDS011;2411;47.060;15.064;2022-11-20T07:27:52;5.30;;;4.80;;
4794;SDS011;2411;47.060;15.064;2022-11-20T07:30:19;5.40;;;4.47;;
4794;SDS011;2411;47.060;15.064;2022-11-20T07:32:52;4.10;;;3.63;;
4794;SDS011;2411;47.060;15.064;2022-11-20T07:35:20;6.33;;;5.37;;
4794;SDS011;2411;47.060;15.064;2022-11-20T07:37:48;6.30;;;5.70;;
4794;SDS011;2411;47.060;15.064;2022-11-20T07:40:15;6.47;;;5.20;;
4794;SDS011;2411;47.060;15.064;2022-11-20T07:42:47;6.53;;;5.77;;
4794;SDS011;2411;47.060;15.064;2022-11-20T07:45:18;5.87;;;5.27;;
4794;SDS011;2411;47.060;15.064;2022-11-20T07:47:46;5.20;;;4.70;;
4794;SDS011;2411;47.060;15.064;2022-11-20T07:50:13;5.50;;;5.00;;
4794;SDS011;2411;47.060;15.064;2022-11-20T07:52:41;6.03;;;5.53;;
4794;SDS011;2411;47.060;15.064;2022-11-20T07:55:09;5.90;;;5.27;;
4794;SDS011;2411;47.060;15.064;2022-11-20T07:57:37;7.57;;;6.77;;
4794;SDS011;2411;47.060;15.064;2022-11-20T08:00:05;6.80;;;6.10;;
4794;SDS011;2411;47.060;15.064;2022-11-20T08:02:39;6.13;;;5.53;;
4794;SDS011;2411;47.060;15.064;2022-11-20T08:05:08;6.57;;;5.97;;
4794;SDS011;2411;47.060;15.064;2022-11-20T08:07:39;6.80;;;5.70;;
4794;SDS011;2411;47.060;15.064;2022-11-20T08:10:09;7.63;;;6.40;;
4794;SDS011;2411;47.060;15.064;2022-11-20T08:12:51;9.53;;;7.00;;
4794;SDS011;2411;47.060;15.064;2022-11-20T08:15:38;8.73;;;7.83;;
4794;SDS011;2411;47.060;15.064;2022-11-20T08:18:10;9.90;;;8.20;;
4794;SDS011;2411;47.060;15.064;2022-11-20T08:21:01;9.97;;;8.27;;
4794;SDS011;2411;47.060;15.064;2022-11-20T08:23:28;10.67;;;8.90;;
4794;SDS011;2411;47.060;15.064;2022-11-20T08:25:56;11.20;;;8.27;;
4794;SDS011;2411;47.060;15.064;2022-11-20T08:28:23;11.00;;;9.30;;
4794;SDS011;2411;47.060;15.064;2022-11-20T08:30:51;10.30;;;8.70;;
4794;SDS011;2411;47.060;15.064;2022-11-20T08:33:23;10.20;;;8.40;;
4794;SDS011;2411;47.060;15.064;2022-11-20T08:35:50;9.63;;;8.53;;
4794;SDS011;2411;47.060;15.064;2022-11-20T08:38:18;12.83;;;10.07;;
4794;SDS011;2411;47.060;15.064;2022-11-20T08:40:45;9.63;;;8.60;;
4794;SDS011;2411;47.060;15.064;2022-11-20T08:43:32;10.27;;;9.17;;
4794;SDS011;2411;47.060;15.064;2022-11-20T08:46:00;14.40;;;11.33;;
4794;SDS011;2411;47.060;15.064;2022-11-20T08:48:27;14.03;;;11.03;;
4794;SDS011;2411;47.060;15.064;2022-11-20T08:50:57;12.07;;;9.17;;
4794;SDS011;2411;47.060;15.064;2022-11-20T08:53:26;13.50;;;10.67;;
4794;SDS011;2411;47.060;15.064;2022-11-20T08:55:54;16.73;;;12.83;;
4794;SDS011;2411;47.060;15.064;2022-11-20T08:58:21;14.53;;;11.53;;
4794;SDS011;2411;47.060;15.064;2022-11-20T09:00:48;10.77;;;9.17;;
4794;SDS011;2411;47.060;15.064;2022-11-20T09:03:15;11.40;;;10.23;;
4794;SDS011;2411;47.060;15.064;2022-11-20T09:05:42;9.47;;;8.30;;
4794;SDS011;2411;47.060;15.064;2022-11-20T09:08:10;9.57;;;8.43;;
4794;SDS011;2411;47.060;15.064;2022-11-20T09:10:37;9.30;;;8.33;;
4794;SDS011;2411;47.060;15.064;2022-11-20T09:13:06;12.30;;;7.80;;
4794;SDS011;2411;47.060;15.064;2022-11-20T09:15:33;10.10;;;7.50;;
4794;SDS011;2411;47.060;15.064;2022-11-20T09:18:01;7.93;;;6.80;;
4794;SDS011;2411;47.060;15.064;2022-11-20T09:20:31;7.97;;;6.17;;
4794;SDS011;2411;47.060;15.064;2022-11-20T09:22:58;9.30;;;6.83;;
4794;SDS011;2411;47.060;15.064;2022-11-20T09:25:26;6.50;;;5.43;;
4794;SDS011;2411;47.060;15.064;2022-11-20T09:27:57;8.03;;;6.17;;
4794;SDS011;2411;47.060;15.064;2022-11-20T09:30:25;6.30;;;5.60;;
4794;SDS011;2411;47.060;15.064;2022-11-20T09:32:53;6.30;;;5.70;;
4794;SDS011;2411;47.060;15.064;2022-11-20T09:35:20;5.60;;;5.10;;
4794;SDS011;2411;47.060;15.064;2022-11-20T09:37:48;6.43;;;5.83;;
4794;SDS011;2411;47.060;15.064;2022-11-20T09:40:22;4.20;;;3.50;;
4794;SDS011;2411;47.060;15.064;2022-11-20T09:43:03;6.27;;;5.13;;
4794;SDS011;2411;47.060;15.064;2022-11-20T09:46:02;7.40;;;5.40;;
4794;SDS011;2411;47.060;15.064;2022-11-20T09:49:02;4.60;;;4.17;;
4794;SDS011;2411;47.060;15.064;2022-11-20T09:54:29;6.80;;;5.97;;
4794;SDS011;2411;47.060;15.064;2022-11-20T09:57:00;7.77;;;7.07;;
4794;SDS011;2411;47.060;15.064;2022-11-20T09:59:36;9.57;;;8.07;;
4794;SDS011;2411;47.060;15.064;2022-11-20T10:10:04;7.07;;;6.37;;
4794;SDS011;2411;47.060;15.064;2022-11-20T10:20:29;7.33;;;6.47;;
4794;SDS011;2411;47.060;15.064;2022-11-20T10:23:17;8.60;;;5.80;;
4794;SDS011;2411;47.060;15.064;2022-11-20T10:30:59;6.80;;;6.10;;
4794;SDS011;2411;47.060;15.064;2022-11-20T10:33:33;7.80;;;6.07;;
4794;SDS011;2411;47.060;15.064;2022-11-20T10:36:29;7.57;;;6.07;;
4794;SDS011;2411;47.060;15.064;2022-11-20T10:39:20;6.80;;;6.10;;
4794;SDS011;2411;47.060;15.064;2022-11-20T10:42:09;4.97;;;4.50;;
4794;SDS011;2411;47.060;15.064;2022-11-20T10:44:38;4.60;;;4.20;;
4794;SDS011;2411;47.060;15.064;2022-11-20T10:47:31;8.80;;;5.40;;
4794;SDS011;2411;47.060;15.064;2022-11-20T10:50:02;5.70;;;5.07;;
4794;SDS011;2411;47.060;15.064;2022-11-20T10:52:35;6.70;;;4.60;;
4794;SDS011;2411;47.060;15.064;2022-11-20T10:55:25;5.70;;;5.20;;
4794;SDS011;2411;47.060;15.064;2022-11-20T11:00:51;4.77;;;4.30;;
4794;SDS011;2411;47.060;15.064;2022-11-20T11:03:28;5.90;;;5.23;;
4794;SDS011;2411;47.060;15.064;2022-11-20T11:06:06;3.40;;;3.10;;
4794;SDS011;2411;47.060;15.064;2022-11-20T11:08:40;4.03;;;3.70;;
4794;SDS011;2411;47.060;15.064;2022-11-20T11:13:49;5.33;;;3.67;;
4794;SDS011;2411;47.060;15.064;2022-11-20T11:16:26;3.73;;;3.43;;
4794;SDS011;2411;47.060;15.064;2022-11-20T11:19:07;3.70;;;3.40;;
4794;SDS011;2411;47.060;15.064;2022-11-20T11:21:43;4.10;;;3.70;;
4794;SDS011;2411;47.060;15.064;2022-11-20T11:27:11;5.67;;;3.90;;
4794;SDS011;2411;47.060;15.064;2022-11-20T11:29:43;4.03;;;3.60;;
4794;SDS011;2411;47.060;15.064;2022-11-20T11:32:12;5.07;;;4.13;;
4794;SDS011;2411;47.060;15.064;2022-11-20T11:34:41;5.43;;;4.27;;
4794;SDS011;2411;47.060;15.064;2022-11-20T11:37:13;4.67;;;4.27;;
4794;SDS011;2411;47.060;15.064;2022-11-20T11:39:44;9.40;;;4.90;;
4794;SDS011;2411;47.060;15.064;2022-11-20T11:42:29;4.67;;;4.10;;
4794;SDS011;2411;47.060;15.064;2022-11-20T11:44:58;5.07;;;4.20;;
4794;SDS011;2411;47.060;15.064;2022-11-20T11:47:33;5.20;;;4.70;;
4794;SDS011;2411;47.060;15.064;2022-11-20T11:53:01;7.03;;;5.80;;
4794;SDS011;2411;47.060;15.064;2022-11-20T11:55:54;4.93;;;4.53;;
4794;SDS011;2411;47.060;15.064;2022-11-20T12:07:11;4.10;;;3.53;;
4794;SDS011;2411;47.060;15.064;2022-11-20T12:10:12;4.00;;;3.47;;
4794;SDS011;2411;47.060;15.064;2022-11-20T12:13:02;3.80;;;3.47;;
4794;SDS011;2411;47.060;15.064;2022-11-20T12:15:37;3.53;;;3.33;;
4794;SDS011;2411;47.060;15.064;2022-11-20T12:18:14;5.67;;;3.93;;
4794;SDS011;2411;47.060;15.064;2022-11-20T12:20:45;3.20;;;3.00;;
4794;SDS011;2411;47.060;15.064;2022-11-20T12:23:44;3.60;;;3.30;;
4794;SDS011;2411;47.060;15.064;2022-11-20T12:50:48;3.30;;;3.00;;
4794;SDS011;2411;47.060;15.064;2022-11-20T13:07:42;7.77;;;3.20;;
4794;SDS011;2411;47.060;15.064;2022-11-20T13:10:19;3.90;;;3.60;;
4794;SDS011;2411;47.060;15.064;2022-11-20T13:13:18;2.73;;;2.53;;
4794;SDS011;2411;47.060;15.064;2022-11-20T13:18:40;2.87;;;2.67;;
4794;SDS011;2411;47.060;15.064;2022-11-20T13:21:44;2.73;;;2.53;;
4794;SDS011;2411;47.060;15.064;2022-11-20T13:26:46;3.40;;;3.10;;
4794;SDS011;2411;47.060;15.064;2022-11-20T13:29:17;3.40;;;3.10;;
4794;SDS011;2411;47.060;15.064;2022-11-20T13:31:48;4.13;;;3.53;;
4794;SDS011;2411;47.060;15.064;2022-11-20T13:34:34;3.90;;;3.47;;
4794;SDS011;2411;47.060;15.064;2022-11-20T13:37:02;5.57;;;5.07;;
4794;SDS011;2411;47.060;15.064;2022-11-20T13:39:33;5.00;;;4.60;;
4794;SDS011;2411;47.060;15.064;2022-11-20T13:44:39;6.00;;;5.00;;
4794;SDS011;2411;47.060;15.064;2022-11-20T13:47:21;4.87;;;4.23;;
4794;SDS011;2411;47.060;15.064;2022-11-20T13:49:50;4.10;;;3.70;;
4794;SDS011;2411;47.060;15.064;2022-11-20T14:01:53;4.57;;;4.17;;
4794;SDS011;2411;47.060;15.064;2022-11-20T14:04:25;4.67;;;4.27;;
4794;SDS011;2411;47.060;15.064;2022-11-20T14:06:56;3.87;;;3.57;;
4794;SDS011;2411;47.060;15.064;2022-11-20T14:09:29;3.80;;;3.50;;
4794;SDS011;2411;47.060;15.064;2022-11-20T14:11:59;4.10;;;3.80;;
4794;SDS011;2411;47.060;15.064;2022-11-20T14:14:29;3.93;;;3.63;;
4794;SDS011;2411;47.060;15.064;2022-11-20T14:17:07;4.83;;;4.43;;
4794;SDS011;2411;47.060;15.064;2022-11-20T14:19:44;6.40;;;4.33;;
4794;SDS011;2411;47.060;15.064;2022-11-20T14:22:23;4.50;;;4.20;;
4794;SDS011;2411;47.060;15.064;2022-11-20T14:27:42;5.20;;;3.80;;
4794;SDS011;2411;47.060;15.064;2022-11-20T14:30:15;4.53;;;3.90;;
4794;SDS011;2411;47.060;15.064;2022-11-20T14:32:47;4.67;;;4.27;;
4794;SDS011;2411;47.060;15.064;2022-11-20T14:35:21;5.20;;;4.70;;
4794;SDS011;2411;47.060;15.064;2022-11-20T14:37:52;5.70;;;4.50;;
4794;SDS011;2411;47.060;15.064;2022-11-20T14:40:41;4.77;;;4.40;;
4794;SDS011;2411;47.060;15.064;2022-11-20T14:43:17;7.40;;;4.33;;
4794;SDS011;2411;47.060;15.064;2022-11-20T14:45:48;4.60;;;4.20;;
4794;SDS011;2411;47.060;15.064;2022-11-20T14:48:30;5.47;;;4.43;;
4794;SDS011;2411;47.060;15.064;2022-11-20T14:51:00;4.50;;;4.10;;
4794;SDS011;2411;47.060;15.064;2022-11-20T14:53:27;4.53;;;4.23;;
4794;SDS011;2411;47.060;15.064;2022-11-20T14:55:59;5.40;;;4.90;;
4794;SDS011;2411;47.060;15.064;2022-11-20T14:58:29;4.87;;;4.40;;
4794;SDS011;2411;47.060;15.064;2022-11-20T15:01:05;5.23;;;4.27;;
4794;SDS011;2411;47.060;15.064;2022-11-20T15:03:35;5.20;;;4.70;;
4794;SDS011;2411;47.060;15.064;2022-11-20T15:06:05;5.50;;;5.00;;
4794;SDS011;2411;47.060;15.064;2022-11-20T15:08:38;5.30;;;4.80;;
4794;SDS011;2411;47.060;15.064;2022-11-20T15:11:20;4.97;;;4.50;;
4794;SDS011;2411;47.060;15.064;2022-11-20T15:13:54;7.27;;;5.63;;
4794;SDS011;2411;47.060;15.064;2022-11-20T15:16:22;7.23;;;4.70;;
4794;SDS011;2411;47.060;15.064;2022-11-20T15:18:50;5.90;;;4.83;;
4794;SDS011;2411;47.060;15.064;2022-11-20T15:21:18;4.63;;;4.23;;
4794;SDS011;2411;47.060;15.064;2022-11-20T15:23:47;5.70;;;5.10;;
4794;SDS011;2411;47.060;15.064;2022-11-20T15:26:18;4.60;;;4.20;;
4794;SDS011;2411;47.060;15.064;2022-11-20T15:28:51;6.57;;;5.93;;
4794;SDS011;2411;47.060;15.064;2022-11-20T15:31:20;5.10;;;4.70;;
4794;SDS011;2411;47.060;15.064;2022-11-20T15:33:49;4.60;;;4.30;;
4794;SDS011;2411;47.060;15.064;2022-11-20T15:36:16;4.07;;;3.83;;
4794;SDS011;2411;47.060;15.064;2022-11-20T15:38:43;4.80;;;4.30;;
4794;SDS011;2411;47.060;15.064;2022-11-20T15:41:10;5.83;;;5.30;;
4794;SDS011;2411;47.060;15.064;2022-11-20T15:43:38;5.23;;;4.80;;
4794;SDS011;2411;47.060;15.064;2022-11-20T15:46:06;5.00;;;4.50;;
4794;SDS011;2411;47.060;15.064;2022-11-20T15:53:46;8.50;;;5.27;;
4794;SDS011;2411;47.060;15.064;2022-11-20T15:56:13;11.17;;;4.63;;
4794;SDS011;2411;47.060;15.064;2022-11-20T15:58:41;4.97;;;4.57;;
4794;SDS011;2411;47.060;15.064;2022-11-20T16:01:12;5.03;;;4.60;;
4794;SDS011;2411;47.060;15.064;2022-11-20T16:03:41;5.47;;;4.97;;
4794;SDS011;2411;47.060;15.064;2022-11-20T16:06:09;5.33;;;4.27;;
4794;SDS011;2411;47.060;15.064;2022-11-20T16:08:36;5.23;;;4.80;;
4794;SDS011;2411;47.060;15.064;2022-11-20T16:11:03;5.50;;;4.83;;
4794;SDS011;2411;47.060;15.064;2022-11-20T16:13:31;5.20;;;4.20;;
4794;SDS011;2411;47.060;15.064;2022-11-20T16:16:21;5.87;;;4.87;;
4794;SDS011;2411;47.060;15.064;2022-11-20T16:18:52;4.60;;;4.20;;
4794;SDS011;2411;47.060;15.064;2022-11-20T16:21:19;4.93;;;4.43;;
4794;SDS011;2411;47.060;15.064;2022-11-20T16:23:46;6.73;;;5.90;;
4794;SDS011;2411;47.060;15.064;2022-11-20T16:26:15;7.30;;;5.80;;
4794;SDS011;2411;47.060;15.064;2022-11-20T16:28:47;5.33;;;4.93;;
4794;SDS011;2411;47.060;15.064;2022-11-20T16:31:15;5.33;;;4.83;;
4794;SDS011;2411;47.060;15.064;2022-11-20T16:33:48;5.17;;;4.67;;
4794;SDS011;2411;47.060;15.064;2022-11-20T16:36:17;7.40;;;5.00;;
4794;SDS011;2411;47.060;15.064;2022-11-20T16:38:45;4.13;;;3.73;;
4794;SDS011;2411;47.060;15.064;2022-11-20T16:41:12;4.93;;;4.40;;
4794;SDS011;2411;47.060;15.064;2022-11-20T16:43:46;8.63;;;5.30;;
4794;SDS011;2411;47.060;15.064;2022-11-20T16:46:15;6.03;;;5.47;;
4794;SDS011;2411;47.060;15.064;2022-11-20T16:48:43;7.97;;;6.23;;
4794;SDS011;2411;47.060;15.064;2022-11-20T16:51:11;8.23;;;6.50;;
4794;SDS011;2411;47.060;15.064;2022-11-20T16:53:38;8.67;;;5.90;;
4794;SDS011;2411;47.060;15.064;2022-11-20T16:58:38;7.80;;;5.23;;
4794;SDS011;2411;47.060;15.064;2022-11-20T17:01:06;6.93;;;5.87;;
4794;SDS011;2411;47.060;15.064;2022-11-20T17:03:36;6.27;;;5.67;;
4794;SDS011;2411;47.060;15.064;2022-11-20T17:06:14;4.70;;;4.30;;
4794;SDS011;2411;47.060;15.064;2022-11-20T17:08:43;5.73;;;4.70;;
4794;SDS011;2411;47.060;15.064;2022-11-20T17:11:11;9.40;;;5.10;;
4794;SDS011;2411;47.060;15.064;2022-11-20T17:13:40;5.97;;;4.97;;
4794;SDS011;2411;47.060;15.064;2022-11-20T17:16:09;4.70;;;4.33;;
4794;SDS011;2411;47.060;15.064;2022-11-20T17:18:43;6.40;;;5.60;;